Airfield :
LOGIN :

Register | Disclaimer

   EN    FR    IT 

 










Legend :    VFR   Marginal VFR   IFR   Intensive IFR   Very Intensive IFR
Visi :
Ceiling :
>= 8 km
>= 3000ft
5 to 8 km
1000 to 3000 ft
1500m to 5 km
500 to 1000 ft
800 to 1500m
200 to 500 ft
< 800m
< 200 ft
Symbols :   Thunderstorms  Fog  Heavy snow  Heavy precipitations  Wind > 20 kt
SIGMETs :     Misc.  Thunderstorms  Icing  Turbulence  Mountain Waves  Volcanic Ashes






- Airport Elevation : 464 ft
- IATA code : EVX


LFOE - Evreux

CURRENT METAR :
  • 201130Z AUTO 18017KT CAVOK 10/03 Q0997 BECMG 19020G30KT

EXPIRED METARs :
  • 201100Z AUTO 18014KT CAVOK 08/03 Q0998 BECMG 19020G30KT
  • 201030Z AUTO 17012KT CAVOK 08/03 Q0998 BECMG 19020G30KT
  • 201000Z AUTO 17011KT CAVOK 07/03 Q0999 NOSIG
  • 200930Z AUTO 17010KT CAVOK 07/03 Q0999 NOSIG
  • 200900Z AUTO 18013KT CAVOK 07/03 Q0999 NOSIG

TAF TAF LFOE
Valid from the 20 at 09:00 until the 21 at 09:00 UTC


200800Z 2009/2109 18014KT CAVOK
BECMG 2012/2014 19020G30KT
BECMG 2020/2022 19020G35KT 4000 RA OVC030
TEMPO 2023/2103 24030G45KT 2000 RA
BECMG 2103/2105 20010G20KT 9999 NSW SCT040



MET'MAP, your aeronautical weather chart ! - Copyright ORBIFLY December 2007 - Disclaimer

ORBIFLY MET'MAP TEAM :

Programming & Development : Alexandra Zaïnal
Concept & original design : Baudouin d'Aumeries
Assistance for programming : Marc-Olivier Méhu
Technical & hardware support : Manuel Goepfert

Contact : metmap@orbifly.com




SOURCES & CREDITS :

   NOAA